NCAR-RAP Real-Time Weather Data

Output produced by METARs form (19 June 2019  10:46 UTC)
found at http://weather.rap.ucar.edu/surface/
 
KILM 190953Z 21004KT 10SM BKN110 24/23 A2988 RMK AO2 SLP117 T02440228
KILM 190853Z 22004KT 10SM BKN047 24/23 A2988 RMK AO2 SLP118 60001 T02440228 55013
KILM 190753Z 21003KT 10SM CLR 24/23 A2988 RMK AO2 SLP117 T02440233
KILM 190653Z 22005KT 10SM BKN050 OVC060 25/23 A2989 RMK AO2 RAB0559E24 SLP122 P0001 T02500233
KILM 190553Z 19005KT 10SM SCT019 BKN040 OVC055 25/23 A2992 RMK AO2 SLP132 60003 T02500233 10272 20244 56008
KILM 190537Z 19004KT 10SM VCTS SCT025 BKN039 OVC060 25/23 A2993 RMK AO2 LTG DSNT SE T02500228
KILM 190453Z 19004KT 10SM FEW025 BKN060 25/23 A2994 RMK AO2 RAE00 SLP137 P0000 T02500228 403280244
KILM 190353Z 20005KT 4SM -RA FEW018 BKN046 BKN065 25/22 A2994 RMK AO2 RAB41 SLP139 P0003 T02500222
KILM 190253Z 18006KT 10SM SCT090 26/22 A2995 RMK AO2 SLP142 T02610222 58003
KILM 190153Z 16006KT 10SM SCT020 BKN080 27/22 A2996 RMK AO2 SLP144 T02670217
KILM 190150Z 17008KT 10SM BKN020 BKN026 OVC080 27/22 A2996 RMK AO2
KILM 190140Z 19006KT 10SM SCT020 SCT026 BKN080 27/22 A2996 RMK AO2 T02670217
KILM 190053Z 17011KT 10SM BKN022 BKN030 BKN080 27/22 A2996 RMK AO2 SLP145 T02670217
KILM 190020Z 17011KT 10SM BKN025 BKN110 27/22 A2996 RMK AO2 T02670217
KILM 182353Z 18008KT 10SM FEW027 BKN110 27/21 A2996 RMK AO2 SLP146 T02720211 10328 20272 55001
KILM 182253Z 18013G20KT 10SM FEW029 28/21 A2996 RMK AO2 SLP143 T02830211
KILM 182153Z 16011G17KT 10SM BKN110 28/22 A2995 RMK AO2 SLP143 T02830217
KILM 182053Z 17012KT 10SM FEW036 31/21 A2997 RMK AO2 SLP147 T03060211 56017
KILM 181953Z 17011G21KT 10SM FEW032 31/22 A2998 RMK AO2 SLP152 T03060217
KILM 181853Z 16008G16KT 10SM SCT037 SCT050 SCT060 31/22 A3000 RMK AO2 SLP158 T03060222
KILM 181753Z 19010KT 10SM SCT041 31/21 A3002 RMK AO2 SLP164 T03110211 10328 20267 58010
KILM 181653Z 20009G16KT 10SM SCT043 SCT055 SCT070 32/21 A3003 RMK AO2 SLP169 T03170211
KILM 181553Z 22006KT 10SM FEW039 31/21 A3004 RMK AO2 LTG DSNT NE SLP171 T03060206
KILM 181453Z 24009KT 10SM SCT037 31/21 A3005 RMK AO2 SLP175 T03110206 56004
KILM 181353Z 24007KT 10SM FEW022 SCT065 SCT090 29/22 A3005 RMK AO2 SLP177 T02940222
KILM 181320Z 23010KT 10SM BKN022 BKN027 29/23 A3006 RMK AO2 T02940228
KILM 181301Z 21009KT 10SM FEW016 SCT024 SCT033 28/23 A3006 RMK AO2 T02830228
KILM 181253Z 22009KT 10SM SCT016 BKN024 BKN033 27/23 A3006 RMK AO2 SLP179 T02720228
KILM 181250Z 23009KT 10SM SCT016 BKN024 BKN033 28/23 A3006 RMK AO2